Hercules, California
Current Conditions -  °F | °C
As of 1:53 AM on Saturday 25 Oct 2014 (Local Time) from KCCR Reporting Station
Clear Clear  
Wind Chill: 64°   Ceiling: Unl
Heat Index: 64°   Visibility: 10mi
Dew Point: 53°   Wind: 9mph
Humidity: 67%   Direction: 200°SSW
Pressure: 29.91"   Gusts: NA
Location:  38.01°N, 122.26°W
Report Text: KCCR 250853Z 20008KT 10SM CLR 18/12 A2991 RMK AO2 SLP115 T01780117 50000
Loading
Personal Weather Stations






























Interactive Weather Map
Tropical Storm Tracking
New forecast layout! Learn more

10-Day Weather Forecast

Advertisements
Track Severe Weather on mobile